Time;durP1;ratioP1;P1;durP2;ratioP2;P2;SDS_P1;SDS_P2;PMS_P1;PMS_P2;Temp;Humidity;BMP_temperature;BMP_pressure;BME280_temperature;BME280_humidity;BME280_pressure;Samples;Min_cycle;Max_cycle;Signal;HPM_P1;HPM_P2
2022/11/12 00:00:22;;;;;;;14.40;9.25;;;;;;;;;;6280938;22;20004;-81
2022/11/12 00:02:49;;;;;;;16.63;9.38;;;;;;;;;;6282031;22;20015;-81
2022/11/12 00:05:15;;;;;;;14.45;8.98;;;;;;;;;;6254789;22;20015;-83
2022/11/12 00:07:41;;;;;;;15.18;9.40;;;;;;;;;;6283129;22;20004;-84
2022/11/12 00:10:07;;;;;;;15.00;9.35;;;;;;;;;;6281194;22;20018;-81
2022/11/12 00:12:33;;;;;;;14.25;8.43;;;;;;;;;;6282220;22;20031;-83
2022/11/12 00:14:59;;;;;;;16.42;9.82;;;;;;;;;;6254449;22;20010;-83
2022/11/12 00:17:25;;;;;;;13.70;8.85;;;;;;;;;;6283569;22;20004;-83
2022/11/12 00:19:52;;;;;;;15.10;9.18;;;;;;;;;;6291481;22;20015;-78
2022/11/12 00:22:18;;;;;;;13.55;8.43;;;;;;;;;;6293183;22;20432;-79
2022/11/12 00:24:45;;;;;;;14.20;9.55;;;;;;;;;;6285790;22;20078;-81
2022/11/12 00:27:11;;;;;;;16.58;8.05;;;;;;;;;;6283008;22;20024;-83
2022/11/12 00:29:37;;;;;;;14.68;8.00;;;;;;;;;;6281195;22;20004;-82
2022/11/12 00:32:05;;;;;;;14.68;8.43;;;;;;;;;;6281172;22;20000;-83
2022/11/12 00:34:31;;;;;;;13.55;8.20;;;;;;;;;;6281377;22;20371;-82
2022/11/12 00:36:57;;;;;;;15.18;9.00;;;;;;;;;;6254299;22;20117;-80
2022/11/12 00:39:23;;;;;;;13.73;9.15;;;;;;;;;;6280350;22;19999;-79
2022/11/12 00:41:49;;;;;;;15.80;9.00;;;;;;;;;;6282270;22;20010;-81
2022/11/12 00:44:15;;;;;;;15.68;8.90;;;;;;;;;;6253805;22;20012;-80
2022/11/12 00:46:41;;;;;;;12.77;8.48;;;;;;;;;;6281669;22;20015;-81
2022/11/12 00:49:07;;;;;;;14.05;8.52;;;;;;;;;;6255231;22;20090;-81
2022/11/12 00:51:34;;;;;;;13.25;7.90;;;;;;;;;;6280724;22;20034;-82
2022/11/12 00:54:00;;;;;;;13.18;8.35;;;;;;;;;;6254824;22;20004;-81
2022/11/12 00:56:26;;;;;;;14.02;8.30;;;;;;;;;;6282226;22;20062;-81
2022/11/12 00:58:52;;;;;;;14.15;8.60;;;;;;;;;;6254325;22;20008;-82
2022/11/12 01:01:19;;;;;;;11.95;8.38;;;;;;;;;;6282299;22;20026;-80
2022/11/12 01:03:45;;;;;;;12.73;9.15;;;;;;;;;;6281401;22;20004;-81
2022/11/12 01:06:12;;;;;;;12.98;7.88;;;;;;;;;;6254781;22;20058;-81
2022/11/12 01:08:39;;;;;;;15.05;7.32;;;;;;;;;;6281956;22;20027;-81
2022/11/12 01:11:09;;;;;;;12.18;7.50;;;;;;;;;;6281808;22;20045;-81
2022/11/12 01:13:35;;;;;;;13.43;7.40;;;;;;;;;;6253689;22;20596;-82
2022/11/12 01:16:09;;;;;;;12.85;7.55;;;;;;;;;;6254930;22;20550;-82
2022/11/12 01:18:35;;;;;;;9.82;6.72;;;;;;;;;;6282589;22;20006;-82
2022/11/12 01:21:02;;;;;;;11.50;6.72;;;;;;;;;;6254590;22;20010;-81
2022/11/12 01:23:28;;;;;;;11.73;7.03;;;;;;;;;;6282422;22;20419;-82
2022/11/12 01:25:54;;;;;;;11.57;6.80;;;;;;;;;;6282001;22;20003;-82
2022/11/12 01:28:20;;;;;;;11.05;6.40;;;;;;;;;;6254809;22;20000;-81
2022/11/12 01:30:46;;;;;;;12.45;7.25;;;;;;;;;;6254495;22;20004;-82
2022/11/12 01:33:12;;;;;;;12.65;7.65;;;;;;;;;;6255035;22;20007;-82
2022/11/12 01:35:38;;;;;;;13.48;7.63;;;;;;;;;;6280194;22;20065;-79
2022/11/12 01:38:04;;;;;;;12.90;7.45;;;;;;;;;;6280958;22;20000;-80
2022/11/12 01:40:32;;;;;;;12.23;6.90;;;;;;;;;;6280847;22;20379;-81
2022/11/12 01:42:58;;;;;;;10.98;6.57;;;;;;;;;;6282067;22;20004;-82
2022/11/12 01:45:24;;;;;;;13.15;7.28;;;;;;;;;;6283612;22;20012;-81
2022/11/12 01:47:50;;;;;;;12.43;7.25;;;;;;;;;;6282639;22;20000;-81
2022/11/12 01:50:36;;;;;;;11.57;7.07;;;;;;;;;;6282656;22;20309;-82
2022/11/12 01:53:05;;;;;;;9.63;6.40;;;;;;;;;;6282101;22;20007;-81
2022/11/12 01:55:33;;;;;;;11.15;7.38;;;;;;;;;;6280838;22;20000;-81
2022/11/12 01:58:11;;;;;;;12.75;7.32;;;;;;;;;;6254155;22;20004;-81
2022/11/12 02:00:37;;;;;;;14.35;8.18;;;;;;;;;;6279845;22;20004;-81
2022/11/12 02:03:08;;;;;;;10.15;7.05;;;;;;;;;;6280311;22;19996;-81
2022/11/12 02:05:36;;;;;;;13.77;6.43;;;;;;;;;;6280840;22;19995;-81
2022/11/12 02:08:04;;;;;;;12.27;6.95;;;;;;;;;;6281348;22;20010;-82
2022/11/12 02:10:30;;;;;;;11.52;6.28;;;;;;;;;;6253851;22;20008;-82
2022/11/12 02:15:41;;;;;;;10.07;6.25;;;;;;;;;;6281941;22;20034;-82
2022/11/12 02:18:08;;;;;;;11.00;6.80;;;;;;;;;;6281244;22;20007;-82
2022/11/12 02:20:34;;;;;;;10.07;6.53;;;;;;;;;;6280605;22;20004;-81
2022/11/12 02:23:01;;;;;;;10.35;6.13;;;;;;;;;;6280896;22;19999;-82
2022/11/12 02:25:28;;;;;;;10.38;6.43;;;;;;;;;;6281148;22;20431;-82
2022/11/12 02:27:55;;;;;;;8.95;6.10;;;;;;;;;;6281215;22;20003;-82
2022/11/12 02:30:35;;;;;;;10.32;6.55;;;;;;;;;;6280951;22;20391;-81
2022/11/12 02:33:02;;;;;;;9.15;6.05;;;;;;;;;;6281076;22;20014;-82
2022/11/12 02:35:28;;;;;;;12.68;6.50;;;;;;;;;;6281006;22;20011;-82
2022/11/12 02:37:54;;;;;;;11.25;6.18;;;;;;;;;;6281717;22;20051;-82
2022/11/12 02:40:20;;;;;;;9.50;5.95;;;;;;;;;;6253411;22;20003;-83
2022/11/12 02:42:46;;;;;;;9.23;5.70;;;;;;;;;;6281752;22;19999;-82
2022/11/12 02:45:13;;;;;;;9.60;5.68;;;;;;;;;;6280355;22;20383;-80
2022/11/12 02:47:39;;;;;;;9.52;6.15;;;;;;;;;;6280729;22;20343;-83
2022/11/12 02:50:06;;;;;;;8.82;5.65;;;;;;;;;;6254415;22;20453;-83
2022/11/12 02:52:32;;;;;;;9.65;5.68;;;;;;;;;;6281242;22;20000;-82
2022/11/12 02:54:58;;;;;;;9.43;5.65;;;;;;;;;;6254496;22;20094;-82
2022/11/12 02:57:24;;;;;;;10.45;5.80;;;;;;;;;;6254737;22;20004;-82
2022/11/12 02:59:50;;;;;;;9.85;5.75;;;;;;;;;;6281192;22;20003;-82
2022/11/12 03:02:16;;;;;;;8.70;5.00;;;;;;;;;;6254556;22;20006;-83
2022/11/12 03:04:42;;;;;;;9.75;5.88;;;;;;;;;;6254308;22;20057;-82
2022/11/12 03:07:08;;;;;;;10.88;5.50;;;;;;;;;;6281474;22;20004;-81
2022/11/12 03:09:34;;;;;;;9.50;6.05;;;;;;;;;;6281736;22;20000;-83
2022/11/12 03:12:00;;;;;;;9.65;6.28;;;;;;;;;;6281108;22;20053;-83
2022/11/12 03:14:26;;;;;;;10.35;5.88;;;;;;;;;;6254139;22;20004;-82
2022/11/12 03:16:52;;;;;;;8.77;5.82;;;;;;;;;;6281796;22;20028;-82
2022/11/12 03:19:18;;;;;;;8.88;5.65;;;;;;;;;;6254486;22;20291;-82
2022/11/12 03:21:44;;;;;;;9.73;5.57;;;;;;;;;;6280236;22;20353;-82
2022/11/12 03:24:11;;;;;;;10.50;6.05;;;;;;;;;;6280939;22;20023;-82
2022/11/12 03:26:37;;;;;;;10.13;5.80;;;;;;;;;;6252715;22;20504;-82
2022/11/12 03:29:03;;;;;;;9.13;5.65;;;;;;;;;;6280549;22;20000;-82
2022/11/12 03:31:29;;;;;;;10.02;6.03;;;;;;;;;;6280351;22;19995;-81
2022/11/12 03:33:55;;;;;;;10.07;6.05;;;;;;;;;;6282289;22;19996;-82
2022/11/12 03:36:21;;;;;;;9.25;5.20;;;;;;;;;;6281243;22;20003;-82
2022/11/12 03:38:47;;;;;;;10.65;6.18;;;;;;;;;;6279953;22;20479;-82
2022/11/12 03:41:13;;;;;;;8.88;5.68;;;;;;;;;;6281658;22;19999;-82
2022/11/12 03:43:39;;;;;;;9.32;5.65;;;;;;;;;;6261184;22;19999;-80
2022/11/12 03:46:05;;;;;;;9.32;5.88;;;;;;;;;;6296835;22;20030;-81
2022/11/12 03:48:31;;;;;;;9.27;5.50;;;;;;;;;;6260510;22;20360;-82
2022/11/12 03:50:58;;;;;;;9.18;5.18;;;;;;;;;;6280337;22;20022;-81
2022/11/12 03:53:24;;;;;;;10.40;5.50;;;;;;;;;;6280851;22;20007;-81
2022/11/12 03:55:50;;;;;;;10.88;5.50;;;;;;;;;;6280829;22;20050;-82
2022/11/12 03:58:16;;;;;;;10.05;6.18;;;;;;;;;;6280938;22;20093;-80
2022/11/12 04:00:42;;;;;;;10.48;6.00;;;;;;;;;;6279346;22;20075;-81
2022/11/12 04:03:08;;;;;;;11.32;5.65;;;;;;;;;;6252911;22;20003;-82
2022/11/12 04:08:35;;;;;;;9.07;5.55;;;;;;;;;;6281843;22;20014;-82
2022/11/12 04:11:02;;;;;;;10.30;5.90;;;;;;;;;;6280627;22;20057;-82
2022/11/12 04:13:28;;;;;;;10.60;6.20;;;;;;;;;;6254006;22;20008;-82
2022/11/12 04:21:49;;;;;;;12.30;7.43;;;;;;;;;;6283782;22;20011;-82
2022/11/12 04:27:00;;;;;;;11.18;6.07;;;;;;;;;;6282377;22;20348;-82
2022/11/12 04:32:11;;;;;;;10.73;6.25;;;;;;;;;;6282199;22;20041;-83
2022/11/12 04:34:37;;;;;;;11.13;6.57;;;;;;;;;;6282673;22;20000;-82
2022/11/12 04:37:04;;;;;;;11.80;7.28;;;;;;;;;;6255073;22;20004;-83
2022/11/12 04:39:30;;;;;;;9.98;5.90;;;;;;;;;;6282608;22;20007;-82
2022/11/12 04:47:22;;;;;;;11.55;6.88;;;;;;;;;;6284175;22;20023;-83
2022/11/12 04:49:49;;;;;;;9.20;6.28;;;;;;;;;;6283940;22;20004;-82
2022/11/12 04:52:15;;;;;;;11.18;7.07;;;;;;;;;;6256645;22;20007;-83
2022/11/12 04:54:41;;;;;;;11.85;7.57;;;;;;;;;;6283374;22;20022;-82
2022/11/12 04:57:07;;;;;;;10.45;6.47;;;;;;;;;;6283551;22;20000;-82
2022/11/12 04:59:33;;;;;;;11.38;6.78;;;;;;;;;;6283049;22;20038;-81
2022/11/12 05:01:59;;;;;;;12.57;6.78;;;;;;;;;;6283450;22;19999;-83
2022/11/12 05:04:27;;;;;;;11.20;6.72;;;;;;;;;;6283355;22;20075;-82
2022/11/12 05:06:55;;;;;;;10.68;6.57;;;;;;;;;;6283262;22;20031;-83
2022/11/12 05:09:22;;;;;;;9.20;5.50;;;;;;;;;;6283291;22;20030;-83
2022/11/12 05:11:48;;;;;;;11.45;7.07;;;;;;;;;;6281866;22;20003;-83
2022/11/12 05:14:14;;;;;;;12.55;6.75;;;;;;;;;;6255437;22;20003;-83
2022/11/12 05:16:40;;;;;;;11.05;6.20;;;;;;;;;;6255036;22;20015;-82
2022/11/12 05:19:06;;;;;;;9.43;6.60;;;;;;;;;;6281532;22;20006;-82
2022/11/12 05:24:17;;;;;;;11.63;7.13;;;;;;;;;;6283026;22;20050;-82
2022/11/12 05:26:43;;;;;;;11.80;7.22;;;;;;;;;;6282428;22;19990;-83
2022/11/12 05:29:09;;;;;;;12.70;6.43;;;;;;;;;;6281935;22;19999;-83
2022/11/12 05:31:35;;;;;;;11.75;7.68;;;;;;;;;;6283675;22;20014;-83
2022/11/12 05:34:01;;;;;;;11.43;6.43;;;;;;;;;;6285919;22;20026;-81
2022/11/12 05:36:27;;;;;;;10.75;6.47;;;;;;;;;;6283749;22;20004;-83
2022/11/12 05:38:53;;;;;;;11.82;6.20;;;;;;;;;;6282345;22;20000;-83
2022/11/12 05:41:19;;;;;;;11.05;6.20;;;;;;;;;;6283270;22;19990;-83
2022/11/12 05:43:45;;;;;;;13.68;7.05;;;;;;;;;;6255906;22;20004;-82
2022/11/12 05:46:11;;;;;;;10.30;6.63;;;;;;;;;;6255846;22;20000;-84
2022/11/12 05:48:37;;;;;;;11.88;6.50;;;;;;;;;;6281198;22;20057;-83
2022/11/12 05:51:03;;;;;;;12.18;6.63;;;;;;;;;;6280852;22;20003;-83
2022/11/12 05:53:29;;;;;;;12.00;6.18;;;;;;;;;;6281893;22;20078;-82
2022/11/12 05:56:03;;;;;;;13.10;6.80;;;;;;;;;;6281616;22;20023;-83
2022/11/12 05:58:30;;;;;;;10.60;5.93;;;;;;;;;;6254061;22;20011;-83
2022/11/12 06:00:56;;;;;;;11.45;6.68;;;;;;;;;;6254014;22;20064;-82
2022/11/12 06:03:22;;;;;;;12.63;7.00;;;;;;;;;;6255334;22;20003;-83
2022/11/12 06:05:48;;;;;;;13.10;7.18;;;;;;;;;;6281750;22;20000;-83
2022/11/12 06:08:14;;;;;;;11.50;6.07;;;;;;;;;;6254338;22;20004;-82
2022/11/12 06:10:40;;;;;;;9.57;6.43;;;;;;;;;;6282117;22;20004;-83
2022/11/12 06:13:06;;;;;;;11.60;6.28;;;;;;;;;;6288244;22;19996;-80
2022/11/12 06:15:32;;;;;;;9.88;6.68;;;;;;;;;;6300874;22;20004;-82
2022/11/12 06:17:58;;;;;;;11.32;6.28;;;;;;;;;;6300063;22;20012;-81
2022/11/12 06:20:24;;;;;;;12.52;6.50;;;;;;;;;;6300336;22;20022;-81
2022/11/12 06:22:50;;;;;;;10.38;6.10;;;;;;;;;;6269253;22;20046;-83
2022/11/12 06:25:17;;;;;;;11.20;6.32;;;;;;;;;;6283804;22;20003;-83
2022/11/12 06:27:43;;;;;;;9.10;5.70;;;;;;;;;;6283219;22;20004;-83
2022/11/12 06:30:09;;;;;;;13.15;6.68;;;;;;;;;;6281954;22;20023;-83
2022/11/12 06:32:35;;;;;;;11.20;6.10;;;;;;;;;;6254263;22;20016;-82
2022/11/12 06:35:01;;;;;;;11.32;6.45;;;;;;;;;;6282584;22;20472;-83
2022/11/12 06:37:27;;;;;;;10.55;6.20;;;;;;;;;;6280772;22;20004;-82
2022/11/12 06:39:53;;;;;;;9.95;5.75;;;;;;;;;;6254271;22;20010;-82
2022/11/12 06:42:19;;;;;;;9.65;5.47;;;;;;;;;;6254365;22;20024;-83
2022/11/12 06:44:45;;;;;;;10.63;6.47;;;;;;;;;;6290946;22;20040;-81
2022/11/12 06:47:11;;;;;;;11.25;6.00;;;;;;;;;;6298008;22;20007;-80
2022/11/12 06:49:37;;;;;;;11.82;6.40;;;;;;;;;;6301884;22;19988;-80
2022/11/12 06:52:03;;;;;;;10.68;6.32;;;;;;;;;;6295513;22;20039;-83
2022/11/12 06:54:29;;;;;;;9.98;5.25;;;;;;;;;;6281623;22;20495;-82
2022/11/12 06:56:55;;;;;;;8.75;5.28;;;;;;;;;;6254587;22;20023;-83
2022/11/12 06:59:21;;;;;;;8.10;4.50;;;;;;;;;;6254289;22;20012;-82
2022/11/12 07:01:47;;;;;;;8.73;4.88;;;;;;;;;;6293036;22;19992;-80
2022/11/12 07:04:13;;;;;;;7.63;5.00;;;;;;;;;;6303431;22;20111;-81
2022/11/12 07:06:39;;;;;;;7.85;4.50;;;;;;;;;;6290558;22;20026;-83
2022/11/12 07:09:05;;;;;;;7.97;5.00;;;;;;;;;;6282233;22;20034;-82
2022/11/12 07:11:32;;;;;;;9.27;5.82;;;;;;;;;;6281973;22;19996;-82
2022/11/12 07:13:58;;;;;;;8.20;5.20;;;;;;;;;;6280728;22;20403;-82
2022/11/12 07:16:24;;;;;;;8.55;5.13;;;;;;;;;;6280375;22;20007;-82
2022/11/12 07:18:50;;;;;;;8.65;4.63;;;;;;;;;;6280590;22;19995;-83
2022/11/12 07:21:20;;;;;;;9.45;5.18;;;;;;;;;;6281384;22;20424;-83
2022/11/12 07:23:46;;;;;;;7.95;4.78;;;;;;;;;;6281623;22;19996;-84
2022/11/12 07:26:14;;;;;;;7.63;4.47;;;;;;;;;;6256268;22;20063;-83
2022/11/12 07:28:40;;;;;;;8.65;4.57;;;;;;;;;;6254909;22;19996;-83
2022/11/12 07:31:07;;;;;;;7.10;4.28;;;;;;;;;;6253510;22;20004;-81
2022/11/12 07:33:33;;;;;;;7.05;4.68;;;;;;;;;;6280421;22;20004;-83
2022/11/12 07:36:00;;;;;;;7.53;4.53;;;;;;;;;;6282501;22;20023;-82
2022/11/12 07:38:27;;;;;;;8.98;5.55;;;;;;;;;;6280209;22;20008;-82
2022/11/12 07:41:04;;;;;;;7.55;4.30;;;;;;;;;;6280215;22;20084;-82
2022/11/12 07:43:30;;;;;;;7.60;4.13;;;;;;;;;;6280223;22;19996;-82
2022/11/12 07:46:00;;;;;;;7.55;5.05;;;;;;;;;;6281236;22;20007;-82
2022/11/12 07:48:26;;;;;;;7.18;4.25;;;;;;;;;;6280853;22;20000;-81
2022/11/12 07:50:52;;;;;;;6.28;4.15;;;;;;;;;;6279331;22;20336;-82
2022/11/12 07:53:18;;;;;;;6.75;4.40;;;;;;;;;;6282757;22;20077;-82
2022/11/12 07:55:52;;;;;;;8.20;5.05;;;;;;;;;;6284117;22;20003;-81
2022/11/12 07:58:18;;;;;;;7.40;4.60;;;;;;;;;;6282378;22;20008;-81
2022/11/12 08:00:44;;;;;;;6.70;4.05;;;;;;;;;;6255525;22;20033;-81
2022/11/12 08:03:10;;;;;;;7.20;4.47;;;;;;;;;;6282063;22;19996;-82
2022/11/12 08:05:36;;;;;;;5.97;3.85;;;;;;;;;;6280577;22;19999;-81
2022/11/12 08:08:02;;;;;;;6.07;3.75;;;;;;;;;;6253929;22;20519;-81
2022/11/12 08:10:28;;;;;;;6.90;4.35;;;;;;;;;;6281697;22;20004;-82
2022/11/12 08:12:57;;;;;;;6.40;3.92;;;;;;;;;;6281792;22;20054;-81
2022/11/12 08:15:23;;;;;;;6.88;4.07;;;;;;;;;;6255384;22;20008;-81
2022/11/12 08:17:49;;;;;;;7.20;4.03;;;;;;;;;;6254754;22;20050;-81
2022/11/12 08:20:15;;;;;;;8.27;4.45;;;;;;;;;;6281608;22;20008;-81
2022/11/12 08:22:41;;;;;;;7.80;4.25;;;;;;;;;;6282227;22;20301;-82
2022/11/12 08:25:08;;;;;;;7.18;3.92;;;;;;;;;;6281547;22;20006;-81
2022/11/12 08:27:34;;;;;;;6.68;4.10;;;;;;;;;;6282297;22;20121;-81
2022/11/12 08:30:00;;;;;;;6.07;3.60;;;;;;;;;;6282218;22;20083;-81
2022/11/12 08:32:26;;;;;;;6.30;3.55;;;;;;;;;;6281146;22;20004;-81
2022/11/12 08:34:52;;;;;;;5.97;3.53;;;;;;;;;;6281669;22;20029;-81
2022/11/12 08:37:18;;;;;;;6.93;3.72;;;;;;;;;;6280562;22;20266;-81
2022/11/12 08:39:44;;;;;;;5.68;3.67;;;;;;;;;;6281075;22;20424;-80
2022/11/12 08:42:10;;;;;;;6.68;4.10;;;;;;;;;;6254555;22;19999;-80
2022/11/12 08:44:36;;;;;;;7.32;4.20;;;;;;;;;;6282189;22;20008;-81
2022/11/12 08:47:02;;;;;;;5.93;3.88;;;;;;;;;;6281400;22;20000;-81
2022/11/12 08:49:28;;;;;;;6.72;4.32;;;;;;;;;;6281604;22;20003;-81
2022/11/12 08:51:54;;;;;;;7.63;4.38;;;;;;;;;;6255240;22;20014;-81
2022/11/12 08:54:21;;;;;;;7.45;4.38;;;;;;;;;;6282423;22;20073;-80
2022/11/12 08:56:47;;;;;;;10.43;5.70;;;;;;;;;;6282377;22;20000;-81
2022/11/12 08:59:13;;;;;;;6.45;4.30;;;;;;;;;;6280891;22;20034;-81
2022/11/12 09:01:39;;;;;;;7.50;3.80;;;;;;;;;;6280370;22;20078;-81
2022/11/12 09:04:05;;;;;;;6.80;4.50;;;;;;;;;;6253166;22;20007;-80
2022/11/12 09:06:31;;;;;;;7.20;4.55;;;;;;;;;;6281197;22;20000;-81
2022/11/12 09:08:57;;;;;;;6.80;4.10;;;;;;;;;;6252992;22;20008;-80
2022/11/12 09:11:23;;;;;;;6.85;3.90;;;;;;;;;;6253706;22;20050;-80
2022/11/12 09:13:49;;;;;;;7.10;4.25;;;;;;;;;;6279877;22;20011;-81
2022/11/12 09:16:16;;;;;;;7.40;4.55;;;;;;;;;;6280450;22;20392;-79
2022/11/12 09:18:42;;;;;;;7.55;4.40;;;;;;;;;;6280660;22;20087;-80
2022/11/12 09:21:10;;;;;;;7.30;4.55;;;;;;;;;;6280046;22;20004;-80
2022/11/12 09:23:37;;;;;;;7.43;4.28;;;;;;;;;;6252687;22;20006;-80
2022/11/12 09:26:03;;;;;;;7.45;4.07;;;;;;;;;;6280914;22;19999;-81
2022/11/12 09:28:30;;;;;;;7.03;4.13;;;;;;;;;;6280757;22;20000;-80
2022/11/12 09:30:56;;;;;;;11.85;5.90;;;;;;;;;;6253065;22;20007;-80
2022/11/12 09:33:23;;;;;;;7.78;4.00;;;;;;;;;;6280251;22;20010;-80
2022/11/12 09:35:50;;;;;;;8.30;4.50;;;;;;;;;;6280120;22;20007;-80
2022/11/12 09:38:16;;;;;;;6.75;4.28;;;;;;;;;;6281704;22;20097;-80
2022/11/12 09:40:45;;;;;;;5.47;3.40;;;;;;;;;;6278926;22;20000;-80
2022/11/12 09:43:22;;;;;;;7.05;4.35;;;;;;;;;;6252061;22;20378;-81
2022/11/12 09:45:48;;;;;;;7.30;4.00;;;;;;;;;;6280162;22;20007;-80
2022/11/12 09:48:17;;;;;;;7.00;3.90;;;;;;;;;;6279834;22;19992;-80
2022/11/12 09:50:49;;;;;;;6.63;3.67;;;;;;;;;;6279027;22;20431;-81
2022/11/12 09:53:21;;;;;;;6.30;3.47;;;;;;;;;;6279291;22;19996;-80
2022/11/12 09:55:48;;;;;;;8.83;4.33;;;;;;;;;;6278364;22;20305;-80
2022/11/12 09:58:15;;;;;;;5.88;3.50;;;;;;;;;;6278293;22;20332;-80
2022/11/12 10:00:47;;;;;;;5.97;3.28;;;;;;;;;;6279203;22;20038;-80
2022/11/12 10:03:16;;;;;;;6.83;4.23;;;;;;;;;;6278421;22;20000;-81
2022/11/12 10:05:48;;;;;;;7.07;3.65;;;;;;;;;;6278099;22;19996;-80
2022/11/12 10:08:33;;;;;;;7.72;4.65;;;;;;;;;;6251510;22;20309;-81
2022/11/12 10:11:05;;;;;;;8.57;4.20;;;;;;;;;;6278340;22;20027;-80
2022/11/12 10:13:38;;;;;;;7.30;4.43;;;;;;;;;;6278349;22;20004;-80
2022/11/12 10:18:48;;;;;;;7.25;4.15;;;;;;;;;;6280051;22;19925;-81
2022/11/12 10:21:14;;;;;;;6.22;4.18;;;;;;;;;;6286394;22;20055;-79
2022/11/12 10:23:45;;;;;;;8.70;4.30;;;;;;;;;;6287229;22;20362;-79
2022/11/12 10:26:17;;;;;;;7.28;4.00;;;;;;;;;;6279762;22;20000;-80
2022/11/12 10:28:46;;;;;;;7.25;3.80;;;;;;;;;;6278423;22;20006;-80
2022/11/12 10:31:14;;;;;;;7.18;3.97;;;;;;;;;;6276790;22;20031;-80
2022/11/12 10:33:40;;;;;;;6.75;3.80;;;;;;;;;;6276516;22;20473;-80
2022/11/12 10:36:13;;;;;;;6.88;3.95;;;;;;;;;;6277015;22;20027;-81
2022/11/12 10:38:41;;;;;;;6.13;3.95;;;;;;;;;;6277005;22;20074;-80
2022/11/12 10:41:32;;;;;;;6.70;4.30;;;;;;;;;;6278938;22;20014;-80
2022/11/12 10:44:02;;;;;;;6.32;3.97;;;;;;;;;;6279011;22;20010;-81
2022/11/12 10:46:30;;;;;;;6.10;4.03;;;;;;;;;;6280324;22;20374;-80
2022/11/12 10:48:58;;;;;;;7.00;4.43;;;;;;;;;;6279652;22;20090;-80
2022/11/12 10:51:26;;;;;;;6.65;3.63;;;;;;;;;;6279983;22;20007;-80
2022/11/12 10:53:52;;;;;;;5.97;3.75;;;;;;;;;;6281071;22;20000;-80
2022/11/12 10:56:24;;;;;;;5.82;3.42;;;;;;;;;;6281542;22;20053;-80
2022/11/12 10:59:10;;;;;;;5.68;3.38;;;;;;;;;;6280061;22;20440;-80
2022/11/12 11:01:36;;;;;;;5.72;3.85;;;;;;;;;;6253108;22;20023;-80
2022/11/12 11:04:02;;;;;;;7.13;3.72;;;;;;;;;;6278562;22;20010;-81
2022/11/12 11:06:28;;;;;;;5.82;3.78;;;;;;;;;;6280905;22;20006;-80
2022/11/12 11:09:13;;;;;;;6.78;4.22;;;;;;;;;;6280734;22;20004;-79
2022/11/12 11:11:48;;;;;;;6.88;3.92;;;;;;;;;;6284503;22;20059;-80
2022/11/12 11:14:25;;;;;;;6.20;3.78;;;;;;;;;;6280867;22;20000;-81
2022/11/12 11:16:52;;;;;;;6.32;4.13;;;;;;;;;;6280592;22;19995;-81
2022/11/12 11:19:19;;;;;;;6.80;3.95;;;;;;;;;;6252177;22;20466;-80
2022/11/12 11:21:50;;;;;;;6.68;4.03;;;;;;;;;;6280536;22;19996;-81
2022/11/12 11:24:19;;;;;;;5.30;3.63;;;;;;;;;;6279119;22;19995;-80
2022/11/12 11:26:53;;;;;;;5.40;3.85;;;;;;;;;;6278918;22;20019;-80
2022/11/12 11:29:19;;;;;;;6.25;3.67;;;;;;;;;;6282008;22;20004;-80
2022/11/12 11:31:49;;;;;;;6.40;3.92;;;;;;;;;;6282555;22;20092;-80
2022/11/12 11:34:22;;;;;;;7.13;4.00;;;;;;;;;;6281636;22;20042;-80
2022/11/12 11:36:53;;;;;;;7.00;3.80;;;;;;;;;;6280441;22;20000;-81
2022/11/12 11:39:22;;;;;;;6.00;3.70;;;;;;;;;;6281509;22;20039;-80
2022/11/12 11:42:05;;;;;;;6.22;3.72;;;;;;;;;;6282368;22;20023;-81
2022/11/12 11:44:37;;;;;;;6.35;4.00;;;;;;;;;;6280828;22;20086;-80
2022/11/12 11:47:03;;;;;;;6.72;3.67;;;;;;;;;;6280440;22;20006;-82
2022/11/12 11:49:35;;;;;;;6.35;4.10;;;;;;;;;;6252692;22;20008;-80
2022/11/12 11:52:19;;;;;;;6.30;3.80;;;;;;;;;;6280395;22;20407;-81
2022/11/12 11:55:00;;;;;;;5.57;3.42;;;;;;;;;;6280129;22;19999;-81
2022/11/12 11:57:37;;;;;;;7.32;3.67;;;;;;;;;;6279124;22;20003;-81
2022/11/12 12:00:09;;;;;;;6.25;4.05;;;;;;;;;;6280188;22;20133;-81
2022/11/12 12:02:54;;;;;;;6.60;3.53;;;;;;;;;;6279166;22;20284;-81
2022/11/12 12:05:26;;;;;;;6.55;4.57;;;;;;;;;;6279586;22;20000;-80
2022/11/12 12:07:55;;;;;;;6.72;3.80;;;;;;;;;;6252122;22;20006;-80
2022/11/12 12:10:21;;;;;;;6.30;3.80;;;;;;;;;;6279136;22;20009;-81
2022/11/12 12:12:47;;;;;;;6.35;3.83;;;;;;;;;;6279714;22;20134;-81
2022/11/12 12:15:32;;;;;;;6.95;4.05;;;;;;;;;;6279995;22;20007;-80
2022/11/12 12:18:00;;;;;;;5.10;2.95;;;;;;;;;;6251665;22;20056;-80
2022/11/12 12:20:33;;;;;;;5.20;3.10;;;;;;;;;;6252761;22;20007;-81
2022/11/12 12:23:02;;;;;;;5.72;3.53;;;;;;;;;;6280489;22;20000;-80
2022/11/12 12:25:36;;;;;;;5.85;3.40;;;;;;;;;;6253688;22;19996;-81
2022/11/12 12:28:12;;;;;;;5.40;3.60;;;;;;;;;;6280048;22;20431;-81
2022/11/12 12:30:40;;;;;;;5.75;3.20;;;;;;;;;;6280264;22;20004;-80
2022/11/12 12:33:09;;;;;;;5.57;3.20;;;;;;;;;;6280535;22;19996;-80
2022/11/12 12:35:44;;;;;;;5.93;2.90;;;;;;;;;;6279842;22;20078;-82
2022/11/12 12:38:30;;;;;;;8.98;3.17;;;;;;;;;;6277959;22;20007;-80
2022/11/12 12:41:26;;;;;;;5.07;2.83;;;;;;;;;;6226314;22;20388;-80
2022/11/12 12:43:55;;;;;;;7.13;3.20;;;;;;;;;;6225951;22;20015;-80
2022/11/12 12:46:23;;;;;;;5.47;3.08;;;;;;;;;;6281657;22;20010;-81
2022/11/12 12:48:50;;;;;;;5.10;3.05;;;;;;;;;;6278786;22;20007;-80
2022/11/12 12:51:17;;;;;;;6.53;3.22;;;;;;;;;;6278280;22;19995;-80
2022/11/12 12:53:43;;;;;;;6.22;3.80;;;;;;;;;;6277754;22;20058;-80
2022/11/12 12:56:12;;;;;;;7.43;3.42;;;;;;;;;;6280937;22;20003;-80
2022/11/12 12:58:47;;;;;;;5.75;2.97;;;;;;;;;;6283385;22;20511;-79
2022/11/12 13:01:22;;;;;;;5.68;3.03;;;;;;;;;;6281782;22;20027;-80
2022/11/12 13:03:48;;;;;;;5.82;3.20;;;;;;;;;;6282128;22;20010;-79
2022/11/12 13:06:21;;;;;;;6.75;3.22;;;;;;;;;;6257103;22;20006;-79
2022/11/12 13:08:47;;;;;;;;;;;;;;;;;;6284394;22;20000;-80
2022/11/12 13:12:20;;;;;;;5.43;3.00;;;;;;;;;;6279200;22;20300;-80
2022/11/12 13:14:41;;;;;;;6.57;3.30;;;;;;;;;;6280232;22;20012;-80
2022/11/12 13:17:07;;;;;;;5.88;2.80;;;;;;;;;;6260543;22;20003;-80
2022/11/12 13:19:52;;;;;;;5.68;3.03;;;;;;;;;;6279091;22;20395;-80
2022/11/12 13:22:18;;;;;;;5.70;3.17;;;;;;;;;;6279770;22;20002;-80
2022/11/12 13:25:03;;;;;;;6.70;3.13;;;;;;;;;;6279216;22;19996;-81
2022/11/12 13:27:44;;;;;;;5.05;2.85;;;;;;;;;;6279224;22;19996;-81
2022/11/12 13:30:13;;;;;;;5.47;3.10;;;;;;;;;;6280539;22;20077;-80
2022/11/12 13:32:51;;;;;;;5.85;2.92;;;;;;;;;;6280377;22;20082;-80
2022/11/12 13:35:24;;;;;;;5.13;2.90;;;;;;;;;;6282364;22;20027;-80
2022/11/12 13:38:02;;;;;;;5.60;2.75;;;;;;;;;;6280664;22;19999;-80
2022/11/12 13:40:46;;;;;;;5.55;3.10;;;;;;;;;;6282746;22;20000;-80
2022/11/12 13:43:17;;;;;;;5.25;3.40;;;;;;;;;;6280468;22;20000;-80
2022/11/12 13:46:02;;;;;;;5.70;3.40;;;;;;;;;;6286591;22;20059;-79
2022/11/12 13:48:29;;;;;;;7.03;3.33;;;;;;;;;;6290748;22;19996;-80
2022/11/12 13:51:00;;;;;;;6.70;3.25;;;;;;;;;;6282422;22;20004;-80
2022/11/12 13:53:27;;;;;;;5.55;3.08;;;;;;;;;;6280019;22;20000;-80
2022/11/12 13:55:54;;;;;;;5.63;3.25;;;;;;;;;;6277673;22;20008;-80
2022/11/12 13:58:31;;;;;;;6.10;3.65;;;;;;;;;;6278661;22;20371;-79
2022/11/12 14:00:58;;;;;;;6.55;3.60;;;;;;;;;;6278840;22;20056;-80
2022/11/12 14:03:26;;;;;;;6.90;3.72;;;;;;;;;;6281874;22;20019;-80
2022/11/12 14:05:52;;;;;;;5.05;2.85;;;;;;;;;;6280612;22;20022;-81
2022/11/12 14:08:27;;;;;;;7.60;3.17;;;;;;;;;;6278569;22;20006;-80
2022/11/12 14:11:12;;;;;;;5.43;2.85;;;;;;;;;;6279070;22;20049;-81
2022/11/12 14:13:48;;;;;;;5.10;2.80;;;;;;;;;;6279006;22;20087;-80
2022/11/12 14:16:22;;;;;;;6.15;3.20;;;;;;;;;;6279167;22;20004;-80
2022/11/12 14:18:57;;;;;;;6.78;3.85;;;;;;;;;;6278835;22;20391;-80
2022/11/12 14:21:23;;;;;;;5.38;2.90;;;;;;;;;;6251161;22;20471;-79
2022/11/12 14:23:49;;;;;;;6.30;3.20;;;;;;;;;;6278263;22;20008;-79
2022/11/12 14:26:33;;;;;;;6.13;3.30;;;;;;;;;;6279576;22;20014;-79
2022/11/12 14:28:59;;;;;;;6.63;3.38;;;;;;;;;;6278236;22;20008;-79
2022/11/12 14:31:25;;;;;;;6.38;3.40;;;;;;;;;;6278579;22;20000;-79
2022/11/12 14:33:51;;;;;;;6.28;3.35;;;;;;;;;;6278729;22;20428;-80
2022/11/12 14:36:18;;;;;;;7.28;3.53;;;;;;;;;;6278681;22;19999;-79
2022/11/12 14:38:49;;;;;;;6.78;3.40;;;;;;;;;;6278867;22;20000;-80
2022/11/12 14:41:20;;;;;;;6.65;3.35;;;;;;;;;;6277614;22;20004;-80
2022/11/12 14:43:51;;;;;;;6.85;3.47;;;;;;;;;;6251212;22;20004;-80
2022/11/12 14:46:26;;;;;;;6.10;3.30;;;;;;;;;;6278565;22;20376;-80
2022/11/12 14:48:58;;;;;;;5.53;3.08;;;;;;;;;;6278493;22;19996;-80
2022/11/12 14:51:26;;;;;;;6.30;3.13;;;;;;;;;;6251843;22;20011;-80
2022/11/12 14:54:10;;;;;;;5.75;3.15;;;;;;;;;;6279533;22;20060;-80
2022/11/12 14:56:38;;;;;;;7.25;3.92;;;;;;;;;;6279051;22;20000;-80
2022/11/12 14:59:04;;;;;;;7.70;4.05;;;;;;;;;;6283762;22;20000;-79
2022/11/12 15:01:32;;;;;;;7.35;3.70;;;;;;;;;;6282177;22;19996;-81
2022/11/12 15:04:11;;;;;;;7.47;3.53;;;;;;;;;;6279459;22;20504;-81
2022/11/12 15:06:38;;;;;;;6.28;3.25;;;;;;;;;;6278911;22;20003;-81
2022/11/12 15:09:04;;;;;;;7.53;4.05;;;;;;;;;;6278924;22;20338;-81
2022/11/12 15:11:51;;;;;;;8.43;3.83;;;;;;;;;;6279317;22;20000;-81
2022/11/12 15:14:21;;;;;;;8.52;3.88;;;;;;;;;;6279049;22;20086;-81